sensor_id;sensor_type;location;lat;lon;timestamp;P1;durP1;ratioP1;P2;durP2;ratioP2
29210;SDS011;16250;49.932;10.980;2023-06-01T00:01:44;3.45;;;2.92;;
29210;SDS011;16250;49.932;10.980;2023-06-01T00:04:09;6.43;;;2.63;;
29210;SDS011;16250;49.932;10.980;2023-06-01T00:06:34;3.85;;;2.60;;
29210;SDS011;16250;49.932;10.980;2023-06-01T00:09:00;4.90;;;2.50;;
29210;SDS011;16250;49.932;10.980;2023-06-01T00:11:27;7.90;;;2.72;;
29210;SDS011;16250;49.932;10.980;2023-06-01T00:13:52;4.22;;;2.63;;
29210;SDS011;16250;49.932;10.980;2023-06-01T00:16:18;6.25;;;2.70;;
29210;SDS011;16250;49.932;10.980;2023-06-01T00:18:44;6.10;;;2.85;;
29210;SDS011;16250;49.932;10.980;2023-06-01T00:21:09;5.65;;;2.60;;
29210;SDS011;16250;49.932;10.980;2023-06-01T00:23:35;5.30;;;2.45;;
29210;SDS011;16250;49.932;10.980;2023-06-01T00:26:00;5.57;;;2.42;;
29210;SDS011;16250;49.932;10.980;2023-06-01T00:28:27;5.38;;;2.45;;
29210;SDS011;16250;49.932;10.980;2023-06-01T00:30:52;5.78;;;2.70;;
29210;SDS011;16250;49.932;10.980;2023-06-01T00:33:21;5.00;;;2.42;;
29210;SDS011;16250;49.932;10.980;2023-06-01T00:35:48;5.63;;;2.63;;
29210;SDS011;16250;49.932;10.980;2023-06-01T00:38:14;9.93;;;2.90;;
29210;SDS011;16250;49.932;10.980;2023-06-01T00:40:40;5.60;;;2.60;;
29210;SDS011;16250;49.932;10.980;2023-06-01T00:43:05;5.10;;;2.67;;
29210;SDS011;16250;49.932;10.980;2023-06-01T00:45:30;5.20;;;2.90;;
29210;SDS011;16250;49.932;10.980;2023-06-01T00:47:56;4.85;;;2.58;;
29210;SDS011;16250;49.932;10.980;2023-06-01T00:50:22;3.40;;;2.78;;
29210;SDS011;16250;49.932;10.980;2023-06-01T00:52:48;6.72;;;2.72;;
29210;SDS011;16250;49.932;10.980;2023-06-01T00:55:14;7.13;;;2.65;;
29210;SDS011;16250;49.932;10.980;2023-06-01T00:57:39;5.53;;;2.72;;
29210;SDS011;16250;49.932;10.980;2023-06-01T01:00:07;4.82;;;2.67;;
29210;SDS011;16250;49.932;10.980;2023-06-01T01:02:37;5.68;;;2.90;;
29210;SDS011;16250;49.932;10.980;2023-06-01T01:05:12;6.18;;;2.78;;
29210;SDS011;16250;49.932;10.980;2023-06-01T01:07:45;6.85;;;2.88;;
29210;SDS011;16250;49.932;10.980;2023-06-01T01:10:33;4.22;;;2.70;;
29210;SDS011;16250;49.932;10.980;2023-06-01T01:13:13;5.00;;;2.72;;
29210;SDS011;16250;49.932;10.980;2023-06-01T01:16:00;7.07;;;2.60;;
29210;SDS011;16250;49.932;10.980;2023-06-01T01:21:42;3.97;;;2.50;;
29210;SDS011;16250;49.932;10.980;2023-06-01T01:27:14;6.47;;;3.00;;
29210;SDS011;16250;49.932;10.980;2023-06-01T01:29:50;5.90;;;3.10;;
29210;SDS011;16250;49.932;10.980;2023-06-01T01:32:17;4.60;;;2.50;;
29210;SDS011;16250;49.932;10.980;2023-06-01T01:34:43;4.22;;;2.70;;
29210;SDS011;16250;49.932;10.980;2023-06-01T01:37:09;4.30;;;2.53;;
29210;SDS011;16250;49.932;10.980;2023-06-01T01:39:35;5.45;;;2.95;;
29210;SDS011;16250;49.932;10.980;2023-06-01T01:42:00;4.80;;;2.78;;
29210;SDS011;16250;49.932;10.980;2023-06-01T01:44:28;5.40;;;3.20;;
29210;SDS011;16250;49.932;10.980;2023-06-01T01:49:28;5.10;;;2.80;;
29210;SDS011;16250;49.932;10.980;2023-06-01T01:54:49;7.05;;;3.55;;
29210;SDS011;16250;49.932;10.980;2023-06-01T01:57:16;5.60;;;2.65;;
29210;SDS011;16250;49.932;10.980;2023-06-01T01:59:43;4.70;;;3.00;;
29210;SDS011;16250;49.932;10.980;2023-06-01T02:02:09;7.45;;;3.00;;
29210;SDS011;16250;49.932;10.980;2023-06-01T02:04:41;6.07;;;3.05;;
29210;SDS011;16250;49.932;10.980;2023-06-01T02:07:08;4.38;;;2.72;;
29210;SDS011;16250;49.932;10.980;2023-06-01T02:09:34;6.45;;;3.10;;
29210;SDS011;16250;49.932;10.980;2023-06-01T02:12:00;4.00;;;2.83;;
29210;SDS011;16250;49.932;10.980;2023-06-01T02:14:26;3.97;;;2.85;;
29210;SDS011;16250;49.932;10.980;2023-06-01T02:16:51;7.25;;;3.20;;
29210;SDS011;16250;49.932;10.980;2023-06-01T02:19:19;4.00;;;2.85;;
29210;SDS011;16250;49.932;10.980;2023-06-01T02:21:44;3.92;;;2.97;;
29210;SDS011;16250;49.932;10.980;2023-06-01T02:24:10;5.53;;;2.50;;
29210;SDS011;16250;49.932;10.980;2023-06-01T02:26:36;5.18;;;2.75;;
29210;SDS011;16250;49.932;10.980;2023-06-01T02:29:01;4.72;;;3.22;;
29210;SDS011;16250;49.932;10.980;2023-06-01T02:31:34;5.55;;;3.13;;
29210;SDS011;16250;49.932;10.980;2023-06-01T02:34:01;6.43;;;2.80;;
29210;SDS011;16250;49.932;10.980;2023-06-01T02:36:27;8.45;;;3.22;;
29210;SDS011;16250;49.932;10.980;2023-06-01T02:38:57;4.97;;;3.30;;
29210;SDS011;16250;49.932;10.980;2023-06-01T02:41:22;6.72;;;2.85;;
29210;SDS011;16250;49.932;10.980;2023-06-01T02:43:48;5.32;;;3.30;;
29210;SDS011;16250;49.932;10.980;2023-06-01T02:46:16;5.97;;;2.97;;
29210;SDS011;16250;49.932;10.980;2023-06-01T02:48:43;7.05;;;3.40;;
29210;SDS011;16250;49.932;10.980;2023-06-01T02:51:08;5.95;;;3.10;;
29210;SDS011;16250;49.932;10.980;2023-06-01T02:53:34;8.85;;;3.30;;
29210;SDS011;16250;49.932;10.980;2023-06-01T02:56:01;5.38;;;2.97;;
29210;SDS011;16250;49.932;10.980;2023-06-01T02:58:41;5.82;;;3.22;;
29210;SDS011;16250;49.932;10.980;2023-06-01T03:01:24;5.80;;;3.20;;
29210;SDS011;16250;49.932;10.980;2023-06-01T03:03:51;5.30;;;3.00;;
29210;SDS011;16250;49.932;10.980;2023-06-01T03:06:17;4.25;;;2.85;;
29210;SDS011;16250;49.932;10.980;2023-06-01T03:08:58;5.75;;;3.25;;
29210;SDS011;16250;49.932;10.980;2023-06-01T03:11:45;5.03;;;2.80;;
29210;SDS011;16250;49.932;10.980;2023-06-01T03:14:10;5.53;;;3.35;;
29210;SDS011;16250;49.932;10.980;2023-06-01T03:16:36;6.10;;;3.40;;
29210;SDS011;16250;49.932;10.980;2023-06-01T03:19:10;6.57;;;3.30;;
29210;SDS011;16250;49.932;10.980;2023-06-01T03:21:36;4.78;;;3.22;;
29210;SDS011;16250;49.932;10.980;2023-06-01T03:24:02;6.05;;;3.50;;
29210;SDS011;16250;49.932;10.980;2023-06-01T03:26:27;7.35;;;3.28;;
29210;SDS011;16250;49.932;10.980;2023-06-01T03:28:53;6.93;;;3.53;;
29210;SDS011;16250;49.932;10.980;2023-06-01T03:31:18;4.25;;;3.33;;
29210;SDS011;16250;49.932;10.980;2023-06-01T03:33:44;5.13;;;3.30;;
29210;SDS011;16250;49.932;10.980;2023-06-01T03:36:10;5.80;;;3.53;;
29210;SDS011;16250;49.932;10.980;2023-06-01T03:38:35;8.35;;;3.42;;
29210;SDS011;16250;49.932;10.980;2023-06-01T03:41:01;6.72;;;4.05;;
29210;SDS011;16250;49.932;10.980;2023-06-01T03:43:27;6.55;;;3.47;;
29210;SDS011;16250;49.932;10.980;2023-06-01T03:45:53;4.63;;;3.38;;
29210;SDS011;16250;49.932;10.980;2023-06-01T03:48:18;5.97;;;3.50;;
29210;SDS011;16250;49.932;10.980;2023-06-01T03:50:44;4.43;;;3.50;;
29210;SDS011;16250;49.932;10.980;2023-06-01T03:53:10;7.93;;;3.45;;
29210;SDS011;16250;49.932;10.980;2023-06-01T03:55:35;6.75;;;3.65;;
29210;SDS011;16250;49.932;10.980;2023-06-01T03:58:04;6.85;;;3.75;;
29210;SDS011;16250;49.932;10.980;2023-06-01T04:00:31;4.70;;;3.58;;
29210;SDS011;16250;49.932;10.980;2023-06-01T04:02:59;5.35;;;3.42;;
29210;SDS011;16250;49.932;10.980;2023-06-01T04:05:26;3.92;;;3.05;;
29210;SDS011;16250;49.932;10.980;2023-06-01T04:07:52;6.40;;;3.60;;
29210;SDS011;16250;49.932;10.980;2023-06-01T04:10:19;5.15;;;3.10;;
29210;SDS011;16250;49.932;10.980;2023-06-01T04:12:45;8.23;;;3.25;;
29210;SDS011;16250;49.932;10.980;2023-06-01T04:15:13;5.05;;;3.50;;
29210;SDS011;16250;49.932;10.980;2023-06-01T04:17:41;9.70;;;4.18;;
29210;SDS011;16250;49.932;10.980;2023-06-01T04:20:11;7.85;;;3.72;;
29210;SDS011;16250;49.932;10.980;2023-06-01T04:22:39;7.82;;;3.85;;
29210;SDS011;16250;49.932;10.980;2023-06-01T04:25:07;6.57;;;4.32;;
29210;SDS011;16250;49.932;10.980;2023-06-01T04:27:43;9.32;;;4.43;;
29210;SDS011;16250;49.932;10.980;2023-06-01T04:30:11;6.88;;;3.88;;
29210;SDS011;16250;49.932;10.980;2023-06-01T04:32:37;6.60;;;3.58;;
29210;SDS011;16250;49.932;10.980;2023-06-01T04:35:04;7.00;;;4.18;;
29210;SDS011;16250;49.932;10.980;2023-06-01T04:37:32;6.60;;;3.72;;
29210;SDS011;16250;49.932;10.980;2023-06-01T04:40:01;6.85;;;3.53;;
29210;SDS011;16250;49.932;10.980;2023-06-01T04:42:32;6.05;;;3.22;;
29210;SDS011;16250;49.932;10.980;2023-06-01T04:44:59;7.78;;;3.92;;
29210;SDS011;16250;49.932;10.980;2023-06-01T04:47:25;5.95;;;3.80;;
29210;SDS011;16250;49.932;10.980;2023-06-01T04:49:54;6.85;;;4.20;;
29210;SDS011;16250;49.932;10.980;2023-06-01T04:52:21;8.07;;;4.20;;
29210;SDS011;16250;49.932;10.980;2023-06-01T04:54:47;5.72;;;3.85;;
29210;SDS011;16250;49.932;10.980;2023-06-01T04:57:13;8.25;;;3.78;;
29210;SDS011;16250;49.932;10.980;2023-06-01T04:59:40;7.30;;;3.97;;
29210;SDS011;16250;49.932;10.980;2023-06-01T05:02:06;6.18;;;3.97;;
29210;SDS011;16250;49.932;10.980;2023-06-01T05:04:31;6.78;;;3.80;;
29210;SDS011;16250;49.932;10.980;2023-06-01T05:06:57;4.28;;;3.70;;
29210;SDS011;16250;49.932;10.980;2023-06-01T05:09:22;5.00;;;3.40;;
29210;SDS011;16250;49.932;10.980;2023-06-01T05:11:48;6.60;;;3.80;;
29210;SDS011;16250;49.932;10.980;2023-06-01T05:14:13;5.45;;;3.70;;
29210;SDS011;16250;49.932;10.980;2023-06-01T05:16:39;6.13;;;3.78;;
29210;SDS011;16250;49.932;10.980;2023-06-01T05:19:05;8.38;;;4.50;;
29210;SDS011;16250;49.932;10.980;2023-06-01T05:21:31;4.85;;;3.40;;
29210;SDS011;16250;49.932;10.980;2023-06-01T05:23:57;5.65;;;3.75;;
29210;SDS011;16250;49.932;10.980;2023-06-01T05:26:23;6.97;;;3.65;;
29210;SDS011;16250;49.932;10.980;2023-06-01T05:28:48;11.25;;;4.28;;
29210;SDS011;16250;49.932;10.980;2023-06-01T05:31:13;6.97;;;4.28;;
29210;SDS011;16250;49.932;10.980;2023-06-01T05:33:43;8.40;;;4.47;;
29210;SDS011;16250;49.932;10.980;2023-06-01T05:36:09;7.43;;;4.53;;
29210;SDS011;16250;49.932;10.980;2023-06-01T05:38:35;7.50;;;4.00;;
29210;SDS011;16250;49.932;10.980;2023-06-01T05:41:00;6.57;;;4.18;;
29210;SDS011;16250;49.932;10.980;2023-06-01T05:43:26;7.63;;;4.00;;
29210;SDS011;16250;49.932;10.980;2023-06-01T05:45:51;5.95;;;3.67;;
29210;SDS011;16250;49.932;10.980;2023-06-01T05:48:17;5.28;;;3.67;;
29210;SDS011;16250;49.932;10.980;2023-06-01T05:50:48;5.75;;;4.30;;
29210;SDS011;16250;49.932;10.980;2023-06-01T05:53:13;9.38;;;4.38;;
29210;SDS011;16250;49.932;10.980;2023-06-01T05:55:39;5.63;;;4.00;;
29210;SDS011;16250;49.932;10.980;2023-06-01T05:58:04;7.85;;;3.95;;
29210;SDS011;16250;49.932;10.980;2023-06-01T06:00:30;5.15;;;3.90;;
29210;SDS011;16250;49.932;10.980;2023-06-01T06:02:56;6.93;;;3.67;;
29210;SDS011;16250;49.932;10.980;2023-06-01T06:05:22;5.80;;;3.63;;
29210;SDS011;16250;49.932;10.980;2023-06-01T06:07:47;5.82;;;3.72;;
29210;SDS011;16250;49.932;10.980;2023-06-01T06:10:12;6.38;;;3.50;;
29210;SDS011;16250;49.932;10.980;2023-06-01T06:12:38;6.97;;;3.75;;
29210;SDS011;16250;49.932;10.980;2023-06-01T06:15:03;5.13;;;3.42;;
29210;SDS011;16250;49.932;10.980;2023-06-01T06:17:29;8.95;;;3.70;;
29210;SDS011;16250;49.932;10.980;2023-06-01T06:19:55;11.27;;;4.10;;
29210;SDS011;16250;49.932;10.980;2023-06-01T06:22:20;9.32;;;4.07;;
29210;SDS011;16250;49.932;10.980;2023-06-01T06:24:45;9.35;;;3.97;;
29210;SDS011;16250;49.932;10.980;2023-06-01T06:27:12;8.73;;;3.90;;
29210;SDS011;16250;49.932;10.980;2023-06-01T06:29:37;10.48;;;3.88;;
29210;SDS011;16250;49.932;10.980;2023-06-01T06:32:03;7.72;;;4.03;;
29210;SDS011;16250;49.932;10.980;2023-06-01T06:34:29;7.53;;;3.28;;
29210;SDS011;16250;49.932;10.980;2023-06-01T06:37:02;5.80;;;3.78;;
29210;SDS011;16250;49.932;10.980;2023-06-01T06:39:28;7.15;;;3.63;;
29210;SDS011;16250;49.932;10.980;2023-06-01T06:41:53;6.00;;;3.70;;
29210;SDS011;16250;49.932;10.980;2023-06-01T06:44:19;7.10;;;3.58;;
29210;SDS011;16250;49.932;10.980;2023-06-01T06:46:44;6.45;;;3.08;;
29210;SDS011;16250;49.932;10.980;2023-06-01T06:49:09;8.77;;;3.28;;
29210;SDS011;16250;49.932;10.980;2023-06-01T06:51:36;7.38;;;3.17;;
29210;SDS011;16250;49.932;10.980;2023-06-01T06:54:02;6.30;;;3.08;;
29210;SDS011;16250;49.932;10.980;2023-06-01T06:56:30;5.88;;;3.03;;
29210;SDS011;16250;49.932;10.980;2023-06-01T06:58:56;6.28;;;3.10;;
29210;SDS011;16250;49.932;10.980;2023-06-01T07:01:21;6.18;;;3.08;;
29210;SDS011;16250;49.932;10.980;2023-06-01T07:03:46;5.85;;;3.15;;
29210;SDS011;16250;49.932;10.980;2023-06-01T07:06:12;7.50;;;2.78;;
29210;SDS011;16250;49.932;10.980;2023-06-01T07:08:37;4.50;;;2.88;;
29210;SDS011;16250;49.932;10.980;2023-06-01T07:11:04;6.30;;;3.10;;
29210;SDS011;16250;49.932;10.980;2023-06-01T07:13:29;7.75;;;3.42;;
29210;SDS011;16250;49.932;10.980;2023-06-01T07:15:55;7.45;;;3.00;;
29210;SDS011;16250;49.932;10.980;2023-06-01T07:18:20;4.88;;;2.80;;
29210;SDS011;16250;49.932;10.980;2023-06-01T07:20:46;7.45;;;2.85;;
29210;SDS011;16250;49.932;10.980;2023-06-01T07:23:11;4.05;;;2.65;;
29210;SDS011;16250;49.932;10.980;2023-06-01T07:25:41;4.80;;;2.70;;
29210;SDS011;16250;49.932;10.980;2023-06-01T07:28:06;6.05;;;3.00;;
29210;SDS011;16250;49.932;10.980;2023-06-01T07:30:33;4.97;;;2.53;;
29210;SDS011;16250;49.932;10.980;2023-06-01T07:32:59;11.10;;;2.90;;
29210;SDS011;16250;49.932;10.980;2023-06-01T07:35:24;5.03;;;2.78;;
29210;SDS011;16250;49.932;10.980;2023-06-01T07:37:50;3.55;;;2.67;;
29210;SDS011;16250;49.932;10.980;2023-06-01T07:40:15;7.80;;;2.67;;
29210;SDS011;16250;49.932;10.980;2023-06-01T07:42:41;6.70;;;2.67;;
29210;SDS011;16250;49.932;10.980;2023-06-01T07:45:07;6.45;;;2.72;;
29210;SDS011;16250;49.932;10.980;2023-06-01T07:47:34;8.25;;;2.70;;
29210;SDS011;16250;49.932;10.980;2023-06-01T07:49:59;7.38;;;2.63;;
29210;SDS011;16250;49.932;10.980;2023-06-01T07:52:24;7.78;;;2.80;;
29210;SDS011;16250;49.932;10.980;2023-06-01T07:54:50;4.60;;;2.70;;
29210;SDS011;16250;49.932;10.980;2023-06-01T07:57:16;4.90;;;2.75;;
29210;SDS011;16250;49.932;10.980;2023-06-01T07:59:42;8.25;;;2.70;;
29210;SDS011;16250;49.932;10.980;2023-06-01T08:02:07;6.35;;;2.72;;
29210;SDS011;16250;49.932;10.980;2023-06-01T08:04:32;5.63;;;2.55;;
29210;SDS011;16250;49.932;10.980;2023-06-01T08:06:58;7.05;;;2.65;;
29210;SDS011;16250;49.932;10.980;2023-06-01T08:09:23;5.82;;;2.65;;
29210;SDS011;16250;49.932;10.980;2023-06-01T08:11:49;7.32;;;2.70;;
29210;SDS011;16250;49.932;10.980;2023-06-01T08:14:15;7.10;;;2.72;;
29210;SDS011;16250;49.932;10.980;2023-06-01T08:16:41;5.30;;;2.65;;
29210;SDS011;16250;49.932;10.980;2023-06-01T08:19:06;4.10;;;2.42;;
29210;SDS011;16250;49.932;10.980;2023-06-01T08:21:33;4.35;;;2.30;;
29210;SDS011;16250;49.932;10.980;2023-06-01T08:24:00;5.70;;;2.22;;
29210;SDS011;16250;49.932;10.980;2023-06-01T08:26:26;4.45;;;2.38;;
29210;SDS011;16250;49.932;10.980;2023-06-01T08:28:52;8.80;;;2.65;;
29210;SDS011;16250;49.932;10.980;2023-06-01T08:31:21;4.93;;;2.70;;
29210;SDS011;16250;49.932;10.980;2023-06-01T08:33:49;2.47;;;2.13;;
29210;SDS011;16250;49.932;10.980;2023-06-01T08:36:15;5.60;;;2.60;;
29210;SDS011;16250;49.932;10.980;2023-06-01T08:38:41;5.13;;;2.55;;
29210;SDS011;16250;49.932;10.980;2023-06-01T08:41:24;6.40;;;2.60;;
29210;SDS011;16250;49.932;10.980;2023-06-01T08:43:59;6.75;;;2.53;;
29210;SDS011;16250;49.932;10.980;2023-06-01T08:46:27;6.10;;;2.75;;
29210;SDS011;16250;49.932;10.980;2023-06-01T08:48:56;5.10;;;2.40;;
29210;SDS011;16250;49.932;10.980;2023-06-01T08:51:23;4.43;;;2.42;;
29210;SDS011;16250;49.932;10.980;2023-06-01T08:53:49;5.20;;;2.20;;
29210;SDS011;16250;49.932;10.980;2023-06-01T08:56:15;4.85;;;2.45;;
29210;SDS011;16250;49.932;10.980;2023-06-01T08:58:41;4.93;;;2.20;;
29210;SDS011;16250;49.932;10.980;2023-06-01T09:01:07;5.47;;;2.80;;
29210;SDS011;16250;49.932;10.980;2023-06-01T09:03:32;5.63;;;2.50;;
29210;SDS011;16250;49.932;10.980;2023-06-01T09:05:57;2.88;;;2.47;;
29210;SDS011;16250;49.932;10.980;2023-06-01T09:08:23;5.78;;;2.63;;
29210;SDS011;16250;49.932;10.980;2023-06-01T09:10:49;5.97;;;2.83;;
29210;SDS011;16250;49.932;10.980;2023-06-01T09:13:29;3.80;;;2.30;;
29210;SDS011;16250;49.932;10.980;2023-06-01T09:15:58;4.03;;;2.28;;
29210;SDS011;16250;49.932;10.980;2023-06-01T09:18:24;3.55;;;2.55;;
29210;SDS011;16250;49.932;10.980;2023-06-01T09:20:49;5.68;;;2.45;;
29210;SDS011;16250;49.932;10.980;2023-06-01T09:23:24;5.47;;;2.25;;
29210;SDS011;16250;49.932;10.980;2023-06-01T09:26:03;3.55;;;2.10;;
29210;SDS011;16250;49.932;10.980;2023-06-01T09:31:38;3.42;;;2.22;;
29210;SDS011;16250;49.932;10.980;2023-06-01T09:34:08;3.15;;;2.00;;
29210;SDS011;16250;49.932;10.980;2023-06-01T09:36:36;4.65;;;2.40;;
29210;SDS011;16250;49.932;10.980;2023-06-01T09:39:09;3.03;;;1.90;;
29210;SDS011;16250;49.932;10.980;2023-06-01T09:41:54;4.15;;;2.40;;
29210;SDS011;16250;49.932;10.980;2023-06-01T09:46:53;5.75;;;2.00;;
29210;SDS011;16250;49.932;10.980;2023-06-01T09:52:08;6.43;;;2.28;;
29210;SDS011;16250;49.932;10.980;2023-06-01T09:54:34;5.88;;;2.38;;
29210;SDS011;16250;49.932;10.980;2023-06-01T09:57:02;4.30;;;2.30;;
29210;SDS011;16250;49.932;10.980;2023-06-01T09:59:29;6.13;;;2.28;;
29210;SDS011;16250;49.932;10.980;2023-06-01T10:01:55;5.68;;;2.15;;
29210;SDS011;16250;49.932;10.980;2023-06-01T10:04:23;5.90;;;2.30;;
29210;SDS011;16250;49.932;10.980;2023-06-01T10:06:51;6.28;;;2.20;;
29210;SDS011;16250;49.932;10.980;2023-06-01T10:09:18;3.75;;;2.03;;
29210;SDS011;16250;49.932;10.980;2023-06-01T10:11:48;3.10;;;1.92;;
29210;SDS011;16250;49.932;10.980;2023-06-01T10:14:15;4.63;;;2.40;;
29210;SDS011;16250;49.932;10.980;2023-06-01T10:16:42;5.25;;;2.25;;
29210;SDS011;16250;49.932;10.980;2023-06-01T10:19:08;4.15;;;2.47;;
29210;SDS011;16250;49.932;10.980;2023-06-01T10:21:34;4.18;;;2.00;;
29210;SDS011;16250;49.932;10.980;2023-06-01T10:24:00;3.70;;;2.10;;
29210;SDS011;16250;49.932;10.980;2023-06-01T10:26:26;4.07;;;2.38;;
29210;SDS011;16250;49.932;10.980;2023-06-01T10:28:52;6.10;;;2.30;;
29210;SDS011;16250;49.932;10.980;2023-06-01T10:31:34;7.50;;;2.47;;
29210;SDS011;16250;49.932;10.980;2023-06-01T10:34:05;5.45;;;2.22;;
29210;SDS011;16250;49.932;10.980;2023-06-01T10:41:48;4.75;;;2.20;;
29210;SDS011;16250;49.932;10.980;2023-06-01T10:44:44;6.45;;;2.30;;
29210;SDS011;16250;49.932;10.980;2023-06-01T10:52:38;6.95;;;2.50;;
29210;SDS011;16250;49.932;10.980;2023-06-01T10:57:31;5.23;;;2.30;;
29210;SDS011;16250;49.932;10.980;2023-06-01T11:02:51;3.42;;;2.17;;
29210;SDS011;16250;49.932;10.980;2023-06-01T11:16:26;5.18;;;2.17;;
29210;SDS011;16250;49.932;10.980;2023-06-01T11:18:55;4.50;;;2.10;;
29210;SDS011;16250;49.932;10.980;2023-06-01T11:21:34;3.88;;;2.05;;
29210;SDS011;16250;49.932;10.980;2023-06-01T11:24:12;6.35;;;2.13;;
29210;SDS011;16250;49.932;10.980;2023-06-01T11:29:11;4.05;;;2.30;;
29210;SDS011;16250;49.932;10.980;2023-06-01T11:31:52;4.18;;;2.30;;
29210;SDS011;16250;49.932;10.980;2023-06-01T11:34:21;4.68;;;1.98;;
29210;SDS011;16250;49.932;10.980;2023-06-01T11:36:56;2.55;;;2.25;;
29210;SDS011;16250;49.932;10.980;2023-06-01T11:39:26;5.55;;;2.38;;
29210;SDS011;16250;49.932;10.980;2023-06-01T11:42:07;3.53;;;2.10;;
29210;SDS011;16250;49.932;10.980;2023-06-01T11:44:39;3.17;;;2.03;;
29210;SDS011;16250;49.932;10.980;2023-06-01T11:47:07;6.82;;;2.65;;
29210;SDS011;16250;49.932;10.980;2023-06-01T11:49:40;5.10;;;2.22;;
29210;SDS011;16250;49.932;10.980;2023-06-01T11:52:09;6.93;;;2.30;;
29210;SDS011;16250;49.932;10.980;2023-06-01T11:54:35;5.88;;;2.42;;
29210;SDS011;16250;49.932;10.980;2023-06-01T11:57:02;3.60;;;2.20;;
29210;SDS011;16250;49.932;10.980;2023-06-01T11:59:28;7.05;;;2.35;;
29210;SDS011;16250;49.932;10.980;2023-06-01T12:02:02;6.50;;;2.50;;
29210;SDS011;16250;49.932;10.980;2023-06-01T12:04:27;4.57;;;2.50;;
29210;SDS011;16250;49.932;10.980;2023-06-01T12:07:03;4.85;;;2.05;;
29210;SDS011;16250;49.932;10.980;2023-06-01T12:09:31;3.80;;;2.20;;
29210;SDS011;16250;49.932;10.980;2023-06-01T12:11:57;4.60;;;2.50;;
29210;SDS011;16250;49.932;10.980;2023-06-01T12:14:23;3.72;;;2.60;;
29210;SDS011;16250;49.932;10.980;2023-06-01T12:19:17;4.78;;;2.10;;
29210;SDS011;16250;49.932;10.980;2023-06-01T12:21:46;3.92;;;2.25;;
29210;SDS011;16250;49.932;10.980;2023-06-01T12:24:15;3.33;;;2.40;;
29210;SDS011;16250;49.932;10.980;2023-06-01T12:26:41;3.47;;;2.15;;
29210;SDS011;16250;49.932;10.980;2023-06-01T12:29:07;6.10;;;2.50;;
29210;SDS011;16250;49.932;10.980;2023-06-01T12:31:32;5.13;;;2.42;;
29210;SDS011;16250;49.932;10.980;2023-06-01T12:33:58;5.95;;;2.20;;
29210;SDS011;16250;49.932;10.980;2023-06-01T12:36:31;4.80;;;2.30;;
29210;SDS011;16250;49.932;10.980;2023-06-01T12:38:57;5.55;;;2.17;;
29210;SDS011;16250;49.932;10.980;2023-06-01T12:41:24;4.60;;;2.30;;
29210;SDS011;16250;49.932;10.980;2023-06-01T12:43:49;4.53;;;2.55;;
29210;SDS011;16250;49.932;10.980;2023-06-01T12:46:18;5.40;;;2.45;;
29210;SDS011;16250;49.932;10.980;2023-06-01T12:48:44;3.80;;;2.55;;
29210;SDS011;16250;49.932;10.980;2023-06-01T12:51:10;3.10;;;2.28;;
29210;SDS011;16250;49.932;10.980;2023-06-01T12:53:36;4.45;;;2.50;;
29210;SDS011;16250;49.932;10.980;2023-06-01T12:56:01;3.83;;;2.60;;
29210;SDS011;16250;49.932;10.980;2023-06-01T12:58:27;3.75;;;2.38;;
29210;SDS011;16250;49.932;10.980;2023-06-01T13:00:53;4.63;;;2.17;;
29210;SDS011;16250;49.932;10.980;2023-06-01T13:03:19;4.30;;;2.28;;
29210;SDS011;16250;49.932;10.980;2023-06-01T13:05:46;4.13;;;2.50;;
29210;SDS011;16250;49.932;10.980;2023-06-01T13:08:12;4.18;;;2.17;;
29210;SDS011;16250;49.932;10.980;2023-06-01T13:10:37;4.30;;;2.15;;
29210;SDS011;16250;49.932;10.980;2023-06-01T13:13:03;3.63;;;2.33;;
29210;SDS011;16250;49.932;10.980;2023-06-01T13:15:28;4.68;;;2.60;;
29210;SDS011;16250;49.932;10.980;2023-06-01T13:17:53;5.53;;;2.42;;
29210;SDS011;16250;49.932;10.980;2023-06-01T13:20:21;3.17;;;2.28;;
29210;SDS011;16250;49.932;10.980;2023-06-01T13:22:47;6.43;;;2.85;;
29210;SDS011;16250;49.932;10.980;2023-06-01T13:25:12;4.47;;;2.65;;
29210;SDS011;16250;49.932;10.980;2023-06-01T13:27:39;6.38;;;2.72;;
29210;SDS011;16250;49.932;10.980;2023-06-01T13:30:04;3.25;;;2.20;;
29210;SDS011;16250;49.932;10.980;2023-06-01T13:32:30;3.60;;;2.25;;
29210;SDS011;16250;49.932;10.980;2023-06-01T13:34:56;4.60;;;2.22;;
29210;SDS011;16250;49.932;10.980;2023-06-01T13:37:22;3.22;;;2.22;;
29210;SDS011;16250;49.932;10.980;2023-06-01T13:39:47;5.63;;;2.30;;
29210;SDS011;16250;49.932;10.980;2023-06-01T13:42:12;4.13;;;2.67;;
29210;SDS011;16250;49.932;10.980;2023-06-01T13:44:38;9.77;;;2.50;;
29210;SDS011;16250;49.932;10.980;2023-06-01T13:47:04;7.85;;;2.63;;
29210;SDS011;16250;49.932;10.980;2023-06-01T13:49:29;3.40;;;2.10;;
29210;SDS011;16250;49.932;10.980;2023-06-01T13:51:54;6.03;;;2.45;;
29210;SDS011;16250;49.932;10.980;2023-06-01T13:54:20;4.80;;;2.50;;
29210;SDS011;16250;49.932;10.980;2023-06-01T13:56:46;3.15;;;2.08;;
29210;SDS011;16250;49.932;10.980;2023-06-01T13:59:12;4.63;;;2.55;;
29210;SDS011;16250;49.932;10.980;2023-06-01T14:01:37;3.03;;;2.50;;
29210;SDS011;16250;49.932;10.980;2023-06-01T14:04:02;8.15;;;2.20;;
29210;SDS011;16250;49.932;10.980;2023-06-01T14:06:28;5.32;;;2.30;;
29210;SDS011;16250;49.932;10.980;2023-06-01T14:08:54;3.38;;;2.35;;
29210;SDS011;16250;49.932;10.980;2023-06-01T14:11:19;3.25;;;2.40;;
29210;SDS011;16250;49.932;10.980;2023-06-01T14:13:45;7.15;;;2.38;;
29210;SDS011;16250;49.932;10.980;2023-06-01T14:16:10;3.88;;;2.40;;
29210;SDS011;16250;49.932;10.980;2023-06-01T14:18:37;5.68;;;2.53;;
29210;SDS011;16250;49.932;10.980;2023-06-01T14:21:02;4.82;;;2.13;;
29210;SDS011;16250;49.932;10.980;2023-06-01T14:23:28;4.47;;;2.60;;
29210;SDS011;16250;49.932;10.980;2023-06-01T14:25:54;5.18;;;2.35;;
29210;SDS011;16250;49.932;10.980;2023-06-01T14:28:20;4.63;;;2.35;;
29210;SDS011;16250;49.932;10.980;2023-06-01T14:30:45;4.32;;;2.20;;
29210;SDS011;16250;49.932;10.980;2023-06-01T14:33:11;3.70;;;2.60;;
29210;SDS011;16250;49.932;10.980;2023-06-01T14:35:37;4.53;;;2.45;;
29210;SDS011;16250;49.932;10.980;2023-06-01T14:38:02;4.80;;;2.30;;
29210;SDS011;16250;49.932;10.980;2023-06-01T14:40:28;3.78;;;2.70;;
29210;SDS011;16250;49.932;10.980;2023-06-01T14:42:53;3.55;;;2.38;;
29210;SDS011;16250;49.932;10.980;2023-06-01T14:45:18;6.45;;;2.50;;
29210;SDS011;16250;49.932;10.980;2023-06-01T14:47:46;3.17;;;1.98;;
29210;SDS011;16250;49.932;10.980;2023-06-01T14:50:12;3.65;;;2.15;;
29210;SDS011;16250;49.932;10.980;2023-06-01T14:52:37;3.80;;;2.20;;
29210;SDS011;16250;49.932;10.980;2023-06-01T14:55:02;4.47;;;2.10;;
29210;SDS011;16250;49.932;10.980;2023-06-01T14:57:28;5.15;;;2.10;;
29210;SDS011;16250;49.932;10.980;2023-06-01T14:59:53;5.20;;;2.35;;
29210;SDS011;16250;49.932;10.980;2023-06-01T15:02:19;5.57;;;2.40;;
29210;SDS011;16250;49.932;10.980;2023-06-01T15:04:44;5.90;;;2.13;;
29210;SDS011;16250;49.932;10.980;2023-06-01T15:07:10;3.33;;;2.20;;
29210;SDS011;16250;49.932;10.980;2023-06-01T15:09:35;5.25;;;2.60;;
29210;SDS011;16250;49.932;10.980;2023-06-01T15:12:01;5.53;;;2.38;;
29210;SDS011;16250;49.932;10.980;2023-06-01T15:14:27;4.93;;;2.55;;
29210;SDS011;16250;49.932;10.980;2023-06-01T15:16:52;3.95;;;2.47;;
29210;SDS011;16250;49.932;10.980;2023-06-01T15:19:17;3.78;;;2.30;;
29210;SDS011;16250;49.932;10.980;2023-06-01T15:21:43;3.78;;;2.55;;
29210;SDS011;16250;49.932;10.980;2023-06-01T15:24:08;3.58;;;2.13;;
29210;SDS011;16250;49.932;10.980;2023-06-01T15:26:33;5.18;;;2.63;;